Terminal Aerodrome Forecast
Issued by NWS Twin Cities, MN

Home | Current Version | Previous Version | Graphics & Text | Print | Product List | Glossary On
Versions: 1 2 3 4 5 6 7 8 9 10 11 12 13 14 15 16 17 18 19
000
FTUS43 KMPX 270520
TAFEAU
TAF
KEAU 270520Z 2706/2806 00000KT 5SM BR OVC015
     FM270800 35003KT 5SM BR OVC009
     FM271400 VRB03KT P6SM OVC015
     FM271900 15005KT P6SM BKN015 BKN250=

USA.gov is the U.S. government's official web portal to all federal, state and local government web resources and services.